sensor_id;sensor_type;location;lat;lon;timestamp;pressure;altitude;pressure_sealevel;temperature;humidity
66880;BME280;53789;51.392;10.234;2023-04-29T00:00:08;97706.63;;;10.92;91.00
66880;BME280;53789;51.392;10.234;2023-04-29T00:00:28;97701.13;;;10.92;90.73
66880;BME280;53789;51.392;10.234;2023-04-29T00:00:48;97709.09;;;10.93;91.14
66880;BME280;53789;51.392;10.234;2023-04-29T00:01:09;97708.28;;;10.93;91.22
66880;BME280;53789;51.392;10.234;2023-04-29T00:01:30;97707.94;;;10.94;90.75
66880;BME280;53789;51.392;10.234;2023-04-29T00:01:50;97692.28;;;10.95;91.25
66880;BME280;53789;51.392;10.234;2023-04-29T00:02:10;97710.38;;;10.96;91.22
66880;BME280;53789;51.392;10.234;2023-04-29T00:02:31;97702.94;;;10.97;90.54
66880;BME280;53789;51.392;10.234;2023-04-29T00:02:51;97708.44;;;10.97;90.69
66880;BME280;53789;51.392;10.234;2023-04-29T00:03:12;97705.38;;;10.98;91.07
66880;BME280;53789;51.392;10.234;2023-04-29T00:03:32;97702.63;;;10.98;90.88
66880;BME280;53789;51.392;10.234;2023-04-29T00:03:52;97706.19;;;10.99;90.49
66880;BME280;53789;51.392;10.234;2023-04-29T00:04:13;97703.75;;;10.97;90.29
66880;BME280;53789;51.392;10.234;2023-04-29T00:04:33;97699.88;;;10.98;89.85
66880;BME280;53789;51.392;10.234;2023-04-29T00:04:53;97699.88;;;10.98;90.12
66880;BME280;53789;51.392;10.234;2023-04-29T00:05:13;97698.75;;;10.99;89.70
66880;BME280;53789;51.392;10.234;2023-04-29T00:05:34;97700.69;;;10.99;90.76
66880;BME280;53789;51.392;10.234;2023-04-29T00:05:54;97704.56;;;10.98;90.33
66880;BME280;53789;51.392;10.234;2023-04-29T00:06:14;97705.38;;;10.98;90.32
66880;BME280;53789;51.392;10.234;2023-04-29T00:06:34;97699.03;;;10.98;89.93
66880;BME280;53789;51.392;10.234;2023-04-29T00:06:55;97701.78;;;10.98;90.16
66880;BME280;53789;51.392;10.234;2023-04-29T00:07:15;97703.75;;;10.97;90.14
66880;BME280;53789;51.392;10.234;2023-04-29T00:07:35;97704.25;;;10.99;89.94
66880;BME280;53789;51.392;10.234;2023-04-29T00:07:56;97701.78;;;10.98;89.93
66880;BME280;53789;51.392;10.234;2023-04-29T00:08:16;97696.28;;;10.98;90.46
66880;BME280;53789;51.392;10.234;2023-04-29T00:08:36;97705.38;;;10.98;90.25
66880;BME280;53789;51.392;10.234;2023-04-29T00:08:56;97701.78;;;10.98;89.50
66880;BME280;53789;51.392;10.234;2023-04-29T00:09:17;97693.53;;;10.98;89.79
66880;BME280;53789;51.392;10.234;2023-04-29T00:09:37;97698.25;;;10.97;89.38
66880;BME280;53789;51.392;10.234;2023-04-29T00:09:57;97696.28;;;10.98;90.09
66880;BME280;53789;51.392;10.234;2023-04-29T00:10:18;97697.13;;;10.98;90.15
66880;BME280;53789;51.392;10.234;2023-04-29T00:10:39;97698.75;;;10.99;89.98
66880;BME280;53789;51.392;10.234;2023-04-29T00:10:59;97695.16;;;10.99;89.72
66880;BME280;53789;51.392;10.234;2023-04-29T00:11:20;97697.59;;;11.00;89.53
66880;BME280;53789;51.392;10.234;2023-04-29T00:11:40;97698.75;;;10.99;89.93
66880;BME280;53789;51.392;10.234;2023-04-29T00:12:00;97698.75;;;10.99;89.87
66880;BME280;53789;51.392;10.234;2023-04-29T00:12:20;97704.25;;;10.99;89.98
66880;BME280;53789;51.392;10.234;2023-04-29T00:12:41;97700.69;;;10.99;89.78
66880;BME280;53789;51.392;10.234;2023-04-29T00:13:01;97690.50;;;10.99;89.61
66880;BME280;53789;51.392;10.234;2023-04-29T00:13:21;97697.91;;;10.99;89.86
66880;BME280;53789;51.392;10.234;2023-04-29T00:13:41;97695.16;;;10.99;89.82
66880;BME280;53789;51.392;10.234;2023-04-29T00:14:02;97693.25;;;10.99;89.64
66880;BME280;53789;51.392;10.234;2023-04-29T00:14:22;97704.25;;;10.99;89.03
66880;BME280;53789;51.392;10.234;2023-04-29T00:14:42;97695.16;;;10.99;89.44
66880;BME280;53789;51.392;10.234;2023-04-29T00:15:03;97693.25;;;10.99;89.59
66880;BME280;53789;51.392;10.234;2023-04-29T00:15:23;97694.06;;;11.00;89.06
66880;BME280;53789;51.392;10.234;2023-04-29T00:15:44;97697.91;;;10.99;88.64
66880;BME280;53789;51.392;10.234;2023-04-29T00:16:05;97696.81;;;11.00;88.90
66880;BME280;53789;51.392;10.234;2023-04-29T00:16:25;97697.59;;;11.00;89.54
66880;BME280;53789;51.392;10.234;2023-04-29T00:16:45;97699.22;;;11.01;89.55
66880;BME280;53789;51.392;10.234;2023-04-29T00:17:06;97698.44;;;11.01;89.38
66880;BME280;53789;51.392;10.234;2023-04-29T00:17:26;97690.50;;;10.99;89.35
66880;BME280;53789;51.392;10.234;2023-04-29T00:17:46;97690.19;;;11.01;88.97
66880;BME280;53789;51.392;10.234;2023-04-29T00:18:07;97692.09;;;11.00;88.55
66880;BME280;53789;51.392;10.234;2023-04-29T00:18:27;97697.59;;;11.00;89.10
66880;BME280;53789;51.392;10.234;2023-04-29T00:18:47;97697.59;;;11.00;88.78
66880;BME280;53789;51.392;10.234;2023-04-29T00:19:07;97693.72;;;11.01;89.16
66880;BME280;53789;51.392;10.234;2023-04-29T00:19:28;97698.09;;;11.02;89.15
66880;BME280;53789;51.392;10.234;2023-04-29T00:19:48;97698.09;;;11.02;88.48
66880;BME280;53789;51.392;10.234;2023-04-29T00:20:09;97704.41;;;11.03;88.67
66880;BME280;53789;51.392;10.234;2023-04-29T00:20:29;97697.28;;;11.02;88.73
66880;BME280;53789;51.392;10.234;2023-04-29T00:20:49;97703.94;;;11.01;89.25
66880;BME280;53789;51.392;10.234;2023-04-29T00:21:10;97704.72;;;11.01;88.51
66880;BME280;53789;51.392;10.234;2023-04-29T00:21:30;97700.34;;;11.00;88.97
66880;BME280;53789;51.392;10.234;2023-04-29T00:21:50;97698.44;;;11.01;88.33
66880;BME280;53789;51.392;10.234;2023-04-29T00:22:11;97704.72;;;11.01;88.10
66880;BME280;53789;51.392;10.234;2023-04-29T00:22:31;97700.84;;;11.02;89.09
66880;BME280;53789;51.392;10.234;2023-04-29T00:22:51;97698.44;;;11.01;88.19
66880;BME280;53789;51.392;10.234;2023-04-29T00:23:11;97703.09;;;11.00;87.84
66880;BME280;53789;51.392;10.234;2023-04-29T00:23:32;97698.91;;;11.03;88.05
66880;BME280;53789;51.392;10.234;2023-04-29T00:23:53;97699.22;;;11.01;88.78
66880;BME280;53789;51.392;10.234;2023-04-29T00:24:13;97698.09;;;11.02;88.47
66880;BME280;53789;51.392;10.234;2023-04-29T00:24:33;97701.66;;;11.03;89.03
66880;BME280;53789;51.392;10.234;2023-04-29T00:24:54;97704.41;;;11.03;87.85
66880;BME280;53789;51.392;10.234;2023-04-29T00:25:14;97695.81;;;11.04;88.53
66880;BME280;53789;51.392;10.234;2023-04-29T00:25:34;97701.34;;;11.04;88.66
66880;BME280;53789;51.392;10.234;2023-04-29T00:25:55;97697.47;;;11.05;88.84
66880;BME280;53789;51.392;10.234;2023-04-29T00:26:15;97700.22;;;11.05;87.73
66880;BME280;53789;51.392;10.234;2023-04-29T00:26:35;97696.63;;;11.05;87.80
66880;BME280;53789;51.392;10.234;2023-04-29T00:26:55;97698.25;;;11.06;87.78
66880;BME280;53789;51.392;10.234;2023-04-29T00:27:16;97700.22;;;11.05;88.30
66880;BME280;53789;51.392;10.234;2023-04-29T00:27:36;97695.19;;;11.07;88.28
66880;BME280;53789;51.392;10.234;2023-04-29T00:27:56;97696.81;;;11.08;88.95
66880;BME280;53789;51.392;10.234;2023-04-29T00:28:16;97693.22;;;11.08;88.02
66880;BME280;53789;51.392;10.234;2023-04-29T00:28:37;97698.41;;;11.09;87.82
66880;BME280;53789;51.392;10.234;2023-04-29T00:28:57;97702.00;;;11.10;88.54
66880;BME280;53789;51.392;10.234;2023-04-29T00:29:17;97693.72;;;11.10;88.52
66880;BME280;53789;51.392;10.234;2023-04-29T00:29:38;97695.38;;;11.11;88.63
66880;BME280;53789;51.392;10.234;2023-04-29T00:29:58;97698.91;;;11.11;87.60
66880;BME280;53789;51.392;10.234;2023-04-29T00:30:18;97696.97;;;11.12;87.90
66880;BME280;53789;51.392;10.234;2023-04-29T00:30:39;97700.53;;;11.12;88.19
66880;BME280;53789;51.392;10.234;2023-04-29T00:30:59;97695.84;;;11.13;87.80
66880;BME280;53789;51.392;10.234;2023-04-29T00:31:19;97693.88;;;11.13;87.44
66880;BME280;53789;51.392;10.234;2023-04-29T00:31:40;97700.53;;;11.12;87.79
66880;BME280;53789;51.392;10.234;2023-04-29T00:32:00;97693.09;;;11.13;88.28
66880;BME280;53789;51.392;10.234;2023-04-29T00:32:20;97696.63;;;11.13;88.66
66880;BME280;53789;51.392;10.234;2023-04-29T00:32:40;97697.47;;;11.14;87.47
66880;BME280;53789;51.392;10.234;2023-04-29T00:33:01;97697.47;;;11.14;88.06
66880;BME280;53789;51.392;10.234;2023-04-29T00:33:21;97693.56;;;11.15;87.99
66880;BME280;53789;51.392;10.234;2023-04-29T00:33:42;97691.97;;;11.14;88.09
66880;BME280;53789;51.392;10.234;2023-04-29T00:34:02;97700.22;;;11.14;87.87
66880;BME280;53789;51.392;10.234;2023-04-29T00:34:23;97703.75;;;11.15;87.56
66880;BME280;53789;51.392;10.234;2023-04-29T00:34:43;97694.72;;;11.14;87.98
66880;BME280;53789;51.392;10.234;2023-04-29T00:35:03;97693.88;;;11.13;87.69
66880;BME280;53789;51.392;10.234;2023-04-29T00:35:24;97699.38;;;11.13;87.57
66880;BME280;53789;51.392;10.234;2023-04-29T00:35:44;97702.97;;;11.14;88.01
66880;BME280;53789;51.392;10.234;2023-04-29T00:36:05;97696.63;;;11.13;87.77
66880;BME280;53789;51.392;10.234;2023-04-29T00:36:25;97696.63;;;11.13;88.02
66880;BME280;53789;51.392;10.234;2023-04-29T00:36:46;97697.78;;;11.12;88.16
66880;BME280;53789;51.392;10.234;2023-04-29T00:37:06;97701.66;;;11.11;88.57
66880;BME280;53789;51.392;10.234;2023-04-29T00:37:26;97694.22;;;11.12;87.98
66880;BME280;53789;51.392;10.234;2023-04-29T00:37:46;97695.38;;;11.11;88.02
66880;BME280;53789;51.392;10.234;2023-04-29T00:38:07;97698.41;;;11.09;88.31
66880;BME280;53789;51.392;10.234;2023-04-29T00:38:27;97699.22;;;11.10;87.73
66880;BME280;53789;51.392;10.234;2023-04-29T00:38:47;97696.47;;;11.10;88.48
66880;BME280;53789;51.392;10.234;2023-04-29T00:39:08;97706.66;;;11.09;88.26
66880;BME280;53789;51.392;10.234;2023-04-29T00:39:28;97701.16;;;11.09;88.38
66880;BME280;53789;51.392;10.234;2023-04-29T00:39:48;97709.41;;;11.09;88.51
66880;BME280;53789;51.392;10.234;2023-04-29T00:40:09;97697.59;;;11.09;87.75
66880;BME280;53789;51.392;10.234;2023-04-29T00:40:29;97702.00;;;11.10;88.26
66880;BME280;53789;51.392;10.234;2023-04-29T00:40:50;97699.22;;;11.10;88.62
66880;BME280;53789;51.392;10.234;2023-04-29T00:41:10;97705.53;;;11.10;88.23
66880;BME280;53789;51.392;10.234;2023-04-29T00:41:31;97705.88;;;11.09;88.55
66880;BME280;53789;51.392;10.234;2023-04-29T00:41:52;97701.16;;;11.09;88.53
66880;BME280;53789;51.392;10.234;2023-04-29T00:42:12;97701.16;;;11.09;88.27
66880;BME280;53789;51.392;10.234;2023-04-29T00:42:33;97712.16;;;11.09;88.12
66880;BME280;53789;51.392;10.234;2023-04-29T00:42:53;97701.16;;;11.09;88.59
66880;BME280;53789;51.392;10.234;2023-04-29T00:43:13;97710.25;;;11.10;89.07
66880;BME280;53789;51.392;10.234;2023-04-29T00:43:34;97708.28;;;11.10;88.39
66880;BME280;53789;51.392;10.234;2023-04-29T00:43:54;97700.88;;;11.11;88.44
66880;BME280;53789;51.392;10.234;2023-04-29T00:44:14;97708.28;;;11.10;89.11
66880;BME280;53789;51.392;10.234;2023-04-29T00:44:34;97702.47;;;11.12;88.83
66880;BME280;53789;51.392;10.234;2023-04-29T00:44:55;97713.00;;;11.10;87.85
66880;BME280;53789;51.392;10.234;2023-04-29T00:45:15;97711.03;;;11.10;88.65
66880;BME280;53789;51.392;10.234;2023-04-29T00:45:35;97705.53;;;11.10;88.65
66880;BME280;53789;51.392;10.234;2023-04-29T00:45:56;97708.28;;;11.10;88.58
66880;BME280;53789;51.392;10.234;2023-04-29T00:46:16;97713.78;;;11.10;88.57
66880;BME280;53789;51.392;10.234;2023-04-29T00:46:36;97712.16;;;11.09;88.06
66880;BME280;53789;51.392;10.234;2023-04-29T00:46:57;97713.78;;;11.10;88.03
66880;BME280;53789;51.392;10.234;2023-04-29T00:47:17;97710.56;;;11.08;88.29
66880;BME280;53789;51.392;10.234;2023-04-29T00:47:37;97710.56;;;11.08;88.32
66880;BME280;53789;51.392;10.234;2023-04-29T00:47:58;97713.31;;;11.08;88.35
66880;BME280;53789;51.392;10.234;2023-04-29T00:48:18;97707.81;;;11.08;88.60
66880;BME280;53789;51.392;10.234;2023-04-29T00:48:38;97708.63;;;11.09;88.40
66880;BME280;53789;51.392;10.234;2023-04-29T00:49:00;97709.75;;;11.08;88.91
66880;BME280;53789;51.392;10.234;2023-04-29T00:49:20;97716.06;;;11.08;88.28
66880;BME280;53789;51.392;10.234;2023-04-29T00:49:41;97714.44;;;11.07;88.14
66880;BME280;53789;51.392;10.234;2023-04-29T00:50:01;97708.94;;;11.07;88.83
66880;BME280;53789;51.392;10.234;2023-04-29T00:50:21;97714.13;;;11.09;88.72
66880;BME280;53789;51.392;10.234;2023-04-29T00:50:42;97712.16;;;11.09;88.47
66880;BME280;53789;51.392;10.234;2023-04-29T00:51:04;97720.44;;;11.09;89.04
66880;BME280;53789;51.392;10.234;2023-04-29T00:51:25;97713.31;;;11.08;87.94
66880;BME280;53789;51.392;10.234;2023-04-29T00:51:46;97710.56;;;11.08;88.52
66880;BME280;53789;51.392;10.234;2023-04-29T00:52:10;97712.16;;;11.09;88.42
66880;BME280;53789;51.392;10.234;2023-04-29T00:52:31;97710.25;;;11.10;89.18
66880;BME280;53789;51.392;10.234;2023-04-29T00:52:52;97711.88;;;11.11;88.05
66880;BME280;53789;51.392;10.234;2023-04-29T00:53:12;97716.53;;;11.10;89.21
66880;BME280;53789;51.392;10.234;2023-04-29T00:53:33;97711.03;;;11.10;88.64
66880;BME280;53789;51.392;10.234;2023-04-29T00:53:54;97716.22;;;11.12;89.23
66880;BME280;53789;51.392;10.234;2023-04-29T00:54:16;97713.78;;;11.10;88.33
66880;BME280;53789;51.392;10.234;2023-04-29T00:54:36;97713.78;;;11.10;89.32
66880;BME280;53789;51.392;10.234;2023-04-29T00:54:58;97720.13;;;11.11;88.40
66880;BME280;53789;51.392;10.234;2023-04-29T00:55:18;97708.28;;;11.10;88.51
66880;BME280;53789;51.392;10.234;2023-04-29T00:55:40;97711.03;;;11.10;88.95
66880;BME280;53789;51.392;10.234;2023-04-29T00:56:01;97713.00;;;11.10;88.98
66880;BME280;53789;51.392;10.234;2023-04-29T00:56:21;97704.22;;;11.08;89.27
66880;BME280;53789;51.392;10.234;2023-04-29T00:56:44;97712.50;;;11.08;89.02
66880;BME280;53789;51.392;10.234;2023-04-29T00:57:05;97717.19;;;11.07;89.21
66880;BME280;53789;51.392;10.234;2023-04-29T00:57:25;97712.50;;;11.08;89.65
66880;BME280;53789;51.392;10.234;2023-04-29T00:57:45;97719.63;;;11.09;89.54
66880;BME280;53789;51.392;10.234;2023-04-29T00:58:07;97716.06;;;11.08;88.83
66880;BME280;53789;51.392;10.234;2023-04-29T00:58:28;97711.38;;;11.09;89.54
66880;BME280;53789;51.392;10.234;2023-04-29T00:58:49;97716.06;;;11.08;89.15
66880;BME280;53789;51.392;10.234;2023-04-29T00:59:10;97716.06;;;11.08;89.97
66880;BME280;53789;51.392;10.234;2023-04-29T00:59:30;97716.88;;;11.09;89.86
66880;BME280;53789;51.392;10.234;2023-04-29T00:59:51;97719.63;;;11.09;89.36
66880;BME280;53789;51.392;10.234;2023-04-29T01:00:11;97721.56;;;11.08;89.32
66880;BME280;53789;51.392;10.234;2023-04-29T01:00:32;97716.06;;;11.08;89.92
66880;BME280;53789;51.392;10.234;2023-04-29T01:00:52;97715.25;;;11.08;90.10
66880;BME280;53789;51.392;10.234;2023-04-29T01:01:13;97714.44;;;11.07;90.40
66880;BME280;53789;51.392;10.234;2023-04-29T01:01:34;97719.94;;;11.07;89.51
66880;BME280;53789;51.392;10.234;2023-04-29T01:01:55;97719.16;;;11.07;90.11
66880;BME280;53789;51.392;10.234;2023-04-29T01:02:15;97717.53;;;11.06;90.17
66880;BME280;53789;51.392;10.234;2023-04-29T01:02:36;97719.47;;;11.05;89.92
66880;BME280;53789;51.392;10.234;2023-04-29T01:02:57;97715.09;;;11.04;90.75
66880;BME280;53789;51.392;10.234;2023-04-29T01:03:18;97723.34;;;11.04;89.74
66880;BME280;53789;51.392;10.234;2023-04-29T01:03:39;97715.88;;;11.05;90.85
66880;BME280;53789;51.392;10.234;2023-04-29T01:03:59;97725.31;;;11.04;90.61
66880;BME280;53789;51.392;10.234;2023-04-29T01:04:20;97714.28;;;11.04;91.04
66880;BME280;53789;51.392;10.234;2023-04-29T01:04:41;97726.09;;;11.04;90.41
66880;BME280;53789;51.392;10.234;2023-04-29T01:05:01;97725.31;;;11.04;90.71
66880;BME280;53789;51.392;10.234;2023-04-29T01:05:22;97719.78;;;11.04;90.25
66880;BME280;53789;51.392;10.234;2023-04-29T01:05:52;97723.66;;;11.03;90.48
66880;BME280;53789;51.392;10.234;2023-04-29T01:06:33;97726.75;;;11.01;91.33
66880;BME280;53789;51.392;10.234;2023-04-29T01:07:58;97725.13;;;11.00;90.90
66880;BME280;53789;51.392;10.234;2023-04-29T01:08:43;97722.69;;;10.99;90.97
66880;BME280;53789;51.392;10.234;2023-04-29T01:10:14;97729.31;;;10.98;91.23
66880;BME280;53789;51.392;10.234;2023-04-29T01:10:44;97725.75;;;10.97;91.42
66880;BME280;53789;51.392;10.234;2023-04-29T01:11:10;97727.72;;;10.97;91.56
66880;BME280;53789;51.392;10.234;2023-04-29T01:11:41;97730.78;;;10.95;92.19
66880;BME280;53789;51.392;10.234;2023-04-29T01:12:48;97736.63;;;10.93;91.50
66880;BME280;53789;51.392;10.234;2023-04-29T01:13:30;97737.41;;;10.94;92.40
66880;BME280;53789;51.392;10.234;2023-04-29T01:13:58;97735.78;;;10.93;92.08
66880;BME280;53789;51.392;10.234;2023-04-29T01:14:20;97731.41;;;10.92;92.19
66880;BME280;53789;51.392;10.234;2023-04-29T01:14:48;97732.53;;;10.91;92.18
66880;BME280;53789;51.392;10.234;2023-04-29T01:15:26;97731.72;;;10.90;93.02
66880;BME280;53789;51.392;10.234;2023-04-29T01:16:24;97730.09;;;10.89;93.10
66880;BME280;53789;51.392;10.234;2023-04-29T01:16:51;97731.22;;;10.88;92.60
66880;BME280;53789;51.392;10.234;2023-04-29T01:17:18;97732.06;;;10.89;92.61
66880;BME280;53789;51.392;10.234;2023-04-29T01:17:43;97735.13;;;10.87;93.58
66880;BME280;53789;51.392;10.234;2023-04-29T01:18:11;97728.78;;;10.87;93.09
66880;BME280;53789;51.392;10.234;2023-04-29T01:18:43;97736.25;;;10.86;93.23
66880;BME280;53789;51.392;10.234;2023-04-29T01:20:00;97738.47;;;10.84;92.88
66880;BME280;53789;51.392;10.234;2023-04-29T01:20:22;97737.69;;;10.84;93.42
66880;BME280;53789;51.392;10.234;2023-04-29T01:20:44;97730.56;;;10.83;93.66
66880;BME280;53789;51.392;10.234;2023-04-29T01:21:04;97727.81;;;10.83;93.57
66880;BME280;53789;51.392;10.234;2023-04-29T01:21:25;97731.38;;;10.83;93.37
66880;BME280;53789;51.392;10.234;2023-04-29T01:21:46;97733.31;;;10.83;93.99
66880;BME280;53789;51.392;10.234;2023-04-29T01:22:07;97735.25;;;10.82;93.73
66880;BME280;53789;51.392;10.234;2023-04-29T01:22:27;97735.25;;;10.82;94.13
66880;BME280;53789;51.392;10.234;2023-04-29T01:22:47;97731.19;;;10.80;93.81
66880;BME280;53789;51.392;10.234;2023-04-29T01:23:08;97739.44;;;10.80;93.92
66880;BME280;53789;51.392;10.234;2023-04-29T01:23:29;97732.03;;;10.80;94.25
66880;BME280;53789;51.392;10.234;2023-04-29T01:23:49;97740.28;;;10.80;93.45
66880;BME280;53789;51.392;10.234;2023-04-29T01:24:09;97732.03;;;10.80;94.66
66880;BME280;53789;51.392;10.234;2023-04-29T01:24:30;97729.59;;;10.78;93.90
66880;BME280;53789;51.392;10.234;2023-04-29T01:24:50;97735.91;;;10.79;93.97
66880;BME280;53789;51.392;10.234;2023-04-29T01:25:10;97738.97;;;10.77;94.23
66880;BME280;53789;51.392;10.234;2023-04-29T01:25:30;97740.59;;;10.78;93.69
66880;BME280;53789;51.392;10.234;2023-04-29T01:25:51;97730.72;;;10.77;94.12
66880;BME280;53789;51.392;10.234;2023-04-29T01:26:11;97733.47;;;10.77;94.21
66880;BME280;53789;51.392;10.234;2023-04-29T01:26:32;97736.22;;;10.77;95.07
66880;BME280;53789;51.392;10.234;2023-04-29T01:27:58;97745.13;;;10.74;94.27
66880;BME280;53789;51.392;10.234;2023-04-29T01:30:01;97746.56;;;10.72;94.36
66880;BME280;53789;51.392;10.234;2023-04-29T01:31:14;97740.25;;;10.71;95.09
66880;BME280;53789;51.392;10.234;2023-04-29T01:31:48;97744.13;;;10.70;94.95
66880;BME280;53789;51.392;10.234;2023-04-29T01:32:16;97746.56;;;10.72;95.45
66880;BME280;53789;51.392;10.234;2023-04-29T01:32:51;97735.88;;;10.70;95.08
66880;BME280;53789;51.392;10.234;2023-04-29T01:33:34;97740.56;;;10.70;94.42
66880;BME280;53789;51.392;10.234;2023-04-29T01:34:18;97738.63;;;10.70;94.65
66880;BME280;53789;51.392;10.234;2023-04-29T01:34:48;97743.31;;;10.70;95.04
66880;BME280;53789;51.392;10.234;2023-04-29T01:36:32;97745.75;;;10.71;94.86
66880;BME280;53789;51.392;10.234;2023-04-29T01:37:47;97739.44;;;10.71;94.52
66880;BME280;53789;51.392;10.234;2023-04-29T01:39:44;97738.94;;;10.69;94.84
66880;BME280;53789;51.392;10.234;2023-04-29T01:40:49;97743.31;;;10.70;95.30
66880;BME280;53789;51.392;10.234;2023-04-29T01:41:18;97742.50;;;10.69;95.07
66880;BME280;53789;51.392;10.234;2023-04-29T01:41:44;97737.81;;;10.70;94.91
66880;BME280;53789;51.392;10.234;2023-04-29T01:42:12;97743.66;;;10.68;94.72
66880;BME280;53789;51.392;10.234;2023-04-29T01:42:47;97742.00;;;10.67;94.65
66880;BME280;53789;51.392;10.234;2023-04-29T01:43:13;97747.19;;;10.69;94.30
66880;BME280;53789;51.392;10.234;2023-04-29T01:43:36;97736.50;;;10.67;95.15
66880;BME280;53789;51.392;10.234;2023-04-29T01:44:01;97740.06;;;10.68;94.59
66880;BME280;53789;51.392;10.234;2023-04-29T01:44:23;97740.06;;;10.68;94.54
66880;BME280;53789;51.392;10.234;2023-04-29T01:44:48;97740.91;;;10.68;94.69
66880;BME280;53789;51.392;10.234;2023-04-29T01:45:10;97745.88;;;10.66;95.26
66880;BME280;53789;51.392;10.234;2023-04-29T01:45:37;97742.34;;;10.66;95.36
66880;BME280;53789;51.392;10.234;2023-04-29T01:45:58;97737.97;;;10.65;95.71
66880;BME280;53789;51.392;10.234;2023-04-29T01:46:18;97744.28;;;10.65;94.79
66880;BME280;53789;51.392;10.234;2023-04-29T01:46:39;97739.59;;;10.66;94.57
66880;BME280;53789;51.392;10.234;2023-04-29T01:47:01;97744.78;;;10.67;95.49
66880;BME280;53789;51.392;10.234;2023-04-29T01:47:23;97745.41;;;10.64;95.39
66880;BME280;53789;51.392;10.234;2023-04-29T01:47:46;97747.34;;;10.64;95.99
66880;BME280;53789;51.392;10.234;2023-04-29T01:48:07;97745.41;;;10.64;95.64
66880;BME280;53789;51.392;10.234;2023-04-29T01:48:28;97745.72;;;10.63;95.29
66880;BME280;53789;51.392;10.234;2023-04-29T01:48:52;97748.78;;;10.61;95.00
66880;BME280;53789;51.392;10.234;2023-04-29T01:49:12;97744.09;;;10.62;95.33
66880;BME280;53789;51.392;10.234;2023-04-29T01:49:35;97744.09;;;10.62;95.34
66880;BME280;53789;51.392;10.234;2023-04-29T01:49:55;97747.97;;;10.60;95.67
66880;BME280;53789;51.392;10.234;2023-04-29T01:50:15;97746.03;;;10.61;95.68
66880;BME280;53789;51.392;10.234;2023-04-29T01:50:35;97749.91;;;10.60;95.69
66880;BME280;53789;51.392;10.234;2023-04-29T01:50:56;97740.03;;;10.59;95.30
66880;BME280;53789;51.392;10.234;2023-04-29T01:51:16;97746.69;;;10.58;95.58
66880;BME280;53789;51.392;10.234;2023-04-29T01:51:36;97747.50;;;10.58;95.86
66880;BME280;53789;51.392;10.234;2023-04-29T01:51:56;97747.50;;;10.58;95.70
66880;BME280;53789;51.392;10.234;2023-04-29T01:52:17;97750.25;;;10.58;96.06
66880;BME280;53789;51.392;10.234;2023-04-29T01:52:37;97747.50;;;10.58;96.20
66880;BME280;53789;51.392;10.234;2023-04-29T01:52:58;97749.44;;;10.58;95.83
66880;BME280;53789;51.392;10.234;2023-04-29T01:53:18;97744.75;;;10.58;96.63
66880;BME280;53789;51.392;10.234;2023-04-29T01:53:38;97747.81;;;10.57;95.77
66880;BME280;53789;51.392;10.234;2023-04-29T01:53:58;97745.06;;;10.57;95.67
66880;BME280;53789;51.392;10.234;2023-04-29T01:54:19;97744.56;;;10.55;96.00
66880;BME280;53789;51.392;10.234;2023-04-29T01:54:40;97744.56;;;10.55;95.96
66880;BME280;53789;51.392;10.234;2023-04-29T01:55:00;97746.50;;;10.54;96.70
66880;BME280;53789;51.392;10.234;2023-04-29T01:55:20;97751.19;;;10.54;96.47
66880;BME280;53789;51.392;10.234;2023-04-29T01:55:41;97745.38;;;10.55;96.97
66880;BME280;53789;51.392;10.234;2023-04-29T01:56:01;97749.25;;;10.54;95.81
66880;BME280;53789;51.392;10.234;2023-04-29T01:56:21;97749.56;;;10.53;96.69
66880;BME280;53789;51.392;10.234;2023-04-29T01:56:42;97751.50;;;10.52;96.46
66880;BME280;53789;51.392;10.234;2023-04-29T01:57:03;97737.75;;;10.52;96.86
66880;BME280;53789;51.392;10.234;2023-04-29T01:57:23;97741.63;;;10.51;96.33
66880;BME280;53789;51.392;10.234;2023-04-29T01:57:44;97747.97;;;10.52;97.43
66880;BME280;53789;51.392;10.234;2023-04-29T01:58:04;97745.22;;;10.52;96.43
66880;BME280;53789;51.392;10.234;2023-04-29T01:58:24;97744.69;;;10.50;96.96
66880;BME280;53789;51.392;10.234;2023-04-29T01:58:44;97745.03;;;10.48;97.20
66880;BME280;53789;51.392;10.234;2023-04-29T01:59:05;97750.53;;;10.48;97.68
66880;BME280;53789;51.392;10.234;2023-04-29T01:59:25;97744.22;;;10.48;97.09
66880;BME280;53789;51.392;10.234;2023-04-29T01:59:45;97746.16;;;10.47;97.25
66880;BME280;53789;51.392;10.234;2023-04-29T02:00:06;97742.91;;;10.45;97.20
66880;BME280;53789;51.392;10.234;2023-04-29T02:00:27;97742.13;;;10.45;97.52
66880;BME280;53789;51.392;10.234;2023-04-29T02:00:47;97740.97;;;10.46;97.37
66880;BME280;53789;51.392;10.234;2023-04-29T02:01:07;97747.59;;;10.45;97.13
66880;BME280;53789;51.392;10.234;2023-04-29T02:01:27;97743.72;;;10.46;97.39
66880;BME280;53789;51.392;10.234;2023-04-29T02:01:48;97742.13;;;10.45;97.52
66880;BME280;53789;51.392;10.234;2023-04-29T02:02:08;97745.97;;;10.43;97.00
66880;BME280;53789;51.392;10.234;2023-04-29T02:02:28;97746.78;;;10.44;97.45
66880;BME280;53789;51.392;10.234;2023-04-29T02:02:49;97750.34;;;10.45;96.99
66880;BME280;53789;51.392;10.234;2023-04-29T02:03:09;97752.78;;;10.46;97.36
66880;BME280;53789;51.392;10.234;2023-04-29T02:03:29;97745.66;;;10.45;97.23
66880;BME280;53789;51.392;10.234;2023-04-29T02:03:49;97754.72;;;10.46;97.66
66880;BME280;53789;51.392;10.234;2023-04-29T02:04:10;97742.91;;;10.45;96.96
66880;BME280;53789;51.392;10.234;2023-04-29T02:04:30;97747.59;;;10.45;96.75
66880;BME280;53789;51.392;10.234;2023-04-29T02:04:50;97748.41;;;10.45;98.09
66880;BME280;53789;51.392;10.234;2023-04-29T02:05:10;97747.59;;;10.45;97.10
66880;BME280;53789;51.392;10.234;2023-04-29T02:05:31;97743.72;;;10.46;97.26